createdAt,value
2018-01-14T00:04:19.531Z,75.00
2018-01-14T00:09:20.547Z,75.30
2018-01-14T00:14:21.583Z,75.20
2018-01-14T00:19:22.619Z,76.50
2018-01-14T00:24:23.618Z,76.80
2018-01-14T00:29:24.844Z,77.40
2018-01-14T00:34:26.616Z,79.60
2018-01-14T00:39:28.046Z,79.40
2018-01-14T00:44:29.830Z,80.40
2018-01-14T00:49:31.083Z,80.40
2018-01-14T00:54:32.098Z,81.90
2018-01-14T00:59:33.115Z,82.60
2018-01-14T01:04:34.854Z,83.50
2018-01-14T01:09:35.894Z,83.50
2018-01-14T01:14:37.872Z,83.80
2018-01-14T01:19:38.891Z,83.70
2018-01-14T01:24:40.875Z,83.90
2018-01-14T01:29:41.886Z,83.90
2018-01-14T01:34:43.131Z,83.90
2018-01-14T01:39:44.131Z,83.50
2018-01-14T01:44:45.416Z,83.50
2018-01-14T01:49:46.432Z,86.00
2018-01-14T01:54:47.462Z,86.20
2018-01-14T01:59:48.651Z,86.40
2018-01-14T02:04:49.719Z,86.20
2018-01-14T02:09:50.959Z,87.10
2018-01-14T02:14:52.703Z,87.10
2018-01-14T02:19:53.710Z,87.00
2018-01-14T02:24:54.704Z,85.40
2018-01-14T02:29:55.698Z,84.20
2018-01-14T02:34:56.966Z,85.00
2018-01-14T02:39:57.963Z,84.30
2018-01-14T02:44:59.134Z,84.50
2018-01-14T02:50:00.138Z,83.60
2018-01-14T02:55:01.151Z,83.40
2018-01-14T03:00:02.387Z,83.90
2018-01-14T03:05:03.403Z,85.20
2018-01-14T03:10:05.155Z,84.90
2018-01-14T03:15:06.158Z,85.00
2018-01-14T03:20:07.177Z,84.60
2018-01-14T03:25:09.143Z,84.60
2018-01-14T03:30:10.151Z,84.50
2018-01-14T03:35:11.898Z,85.20
2018-01-14T03:40:13.111Z,85.20
2018-01-14T03:45:14.106Z,86.00
2018-01-14T03:50:15.378Z,85.00
2018-01-14T03:55:16.439Z,85.50
2018-01-14T04:00:17.471Z,85.10
2018-01-14T04:05:18.480Z,85.60
2018-01-14T04:10:19.470Z,86.20
2018-01-14T04:15:20.485Z,86.70
2018-01-14T04:20:21.482Z,86.20
2018-01-14T04:25:22.767Z,86.90
2018-01-14T04:30:23.786Z,87.00
2018-01-14T04:35:25.526Z,88.10
2018-01-14T04:40:26.747Z,88.10
2018-01-14T04:45:27.748Z,88.00
2018-01-14T04:50:28.739Z,88.10
2018-01-14T04:55:30.711Z,87.60
2018-01-14T05:00:31.717Z,87.60
2018-01-14T05:05:33.465Z,89.40
2018-01-14T05:10:34.603Z,88.80
2018-01-14T05:15:35.598Z,87.80
2018-01-14T05:20:37.567Z,87.40
2018-01-14T05:25:38.566Z,87.30
2018-01-14T05:30:39.558Z,87.40
2018-01-14T05:35:41.325Z,87.40
2018-01-14T05:40:42.456Z,87.30
2018-01-14T05:45:44.418Z,88.20
2018-01-14T05:50:45.418Z,88.20
2018-01-14T05:55:46.733Z,88.00
2018-01-14T06:00:47.827Z,89.30
2018-01-14T06:05:48.982Z,89.80
2018-01-14T06:10:49.988Z,90.00
2018-01-14T06:15:51.723Z,90.60
2018-01-14T06:20:52.939Z,90.60
2018-01-14T06:25:53.966Z,89.80
2018-01-14T06:30:54.954Z,90.60
2018-01-14T06:35:56.182Z,90.10
2018-01-14T06:40:57.186Z,92.30
2018-01-14T06:45:58.191Z,90.70
2018-01-14T06:50:59.935Z,92.50
2018-01-14T06:56:00.942Z,93.10
2018-01-14T07:01:02.124Z,93.10
2018-01-14T07:06:03.132Z,93.20
2018-01-14T07:11:04.159Z,92.30
2018-01-14T07:16:05.884Z,92.70
2018-01-14T07:21:06.899Z,92.70
2018-01-14T07:26:08.631Z,91.20
2018-01-14T07:31:09.634Z,91.20
2018-01-14T07:36:10.671Z,90.70
2018-01-14T07:41:12.419Z,89.60
2018-01-14T07:46:13.419Z,89.50
2018-01-14T07:51:14.418Z,90.80
2018-01-14T07:56:15.436Z,89.00
2018-01-14T08:01:16.458Z,87.80
2018-01-14T08:06:17.466Z,86.30
2018-01-14T08:11:18.466Z,85.50
2018-01-14T08:16:20.222Z,83.70
2018-01-14T08:21:21.414Z,83.70
2018-01-14T08:26:22.439Z,84.10
2018-01-14T08:31:24.402Z,79.50
2018-01-14T08:36:25.405Z,80.30
2018-01-14T08:41:26.424Z,80.10
2018-01-14T08:46:27.437Z,78.00
2018-01-14T08:51:28.646Z,77.20
2018-01-14T08:56:29.662Z,76.20
2018-01-14T09:01:37.637Z,76.10
2018-01-14T09:06:38.638Z,76.10
2018-01-14T09:11:39.846Z,74.80
2018-01-14T09:16:40.859Z,74.40
2018-01-14T09:21:42.611Z,73.10
2018-01-14T09:26:44.066Z,73.00
2018-01-14T09:31:45.079Z,72.70
2018-01-14T09:36:46.082Z,72.00
2018-01-14T09:41:47.102Z,72.00
2018-01-14T09:46:48.879Z,70.50
2018-01-14T09:51:50.662Z,70.50
2018-01-14T09:56:51.955Z,69.10
2018-01-14T10:01:52.951Z,68.60
2018-01-14T10:06:53.979Z,70.20
2018-01-14T10:11:54.974Z,66.70
2018-01-14T10:16:56.022Z,66.50
2018-01-14T10:21:57.042Z,66.70
2018-01-14T10:26:58.146Z,64.20
2018-01-14T10:31:59.334Z,64.90
2018-01-14T10:37:00.555Z,63.30
2018-01-14T10:42:02.326Z,62.30
2018-01-14T10:47:03.420Z,61.50
2018-01-14T10:52:04.576Z,59.50
2018-01-14T11:02:12.683Z,58.80
2018-01-14T11:07:13.766Z,57.40
2018-01-14T11:12:14.896Z,56.00
2018-01-14T11:17:16.062Z,55.00
2018-01-14T11:22:17.136Z,55.20
2018-01-14T11:27:18.215Z,55.50
2018-01-14T11:32:26.995Z,56.00
2018-01-14T11:37:28.088Z,55.90
2018-01-14T11:42:29.245Z,54.80
2018-01-14T11:47:30.488Z,55.40
2018-01-14T11:52:31.688Z,55.10
2018-01-14T11:57:33.605Z,60.70
2018-01-14T12:02:34.778Z,60.80
2018-01-14T12:07:35.949Z,53.00
2018-01-14T12:12:37.098Z,54.40
2018-01-14T12:17:38.195Z,54.70
2018-01-14T12:22:39.319Z,55.40
2018-01-14T12:27:40.528Z,55.00
2018-01-14T12:32:53.968Z,53.90
2018-01-14T12:37:55.158Z,54.30
2018-01-14T12:42:56.486Z,54.20
2018-01-14T12:47:57.878Z,53.90
2018-01-14T12:52:59.037Z,53.30
2018-01-14T12:58:00.359Z,52.50
2018-01-14T13:03:01.485Z,52.70
2018-01-14T13:08:03.487Z,53.40
2018-01-14T13:13:04.487Z,53.40
2018-01-14T13:18:05.488Z,53.10
2018-01-14T13:23:07.227Z,53.20
2018-01-14T13:28:08.222Z,53.30
2018-01-14T13:33:09.406Z,53.30
2018-01-14T13:38:10.432Z,54.20
2018-01-14T13:43:12.270Z,55.90
2018-01-14T13:48:13.654Z,55.80
2018-01-14T13:53:14.804Z,56.40
2018-01-14T13:58:16.298Z,56.30
2018-01-14T14:03:17.529Z,57.00
2018-01-14T14:08:18.742Z,57.60
2018-01-14T14:13:19.747Z,58.10
2018-01-14T14:18:20.745Z,58.00
2018-01-14T14:23:22.747Z,56.70
2018-01-14T14:28:24.601Z,57.60
2018-01-14T14:33:25.718Z,57.50
2018-01-14T14:38:27.875Z,56.90
2018-01-14T14:43:29.279Z,56.80
2018-01-14T14:48:30.592Z,57.50
2018-01-14T14:53:31.634Z,57.00
2018-01-14T14:58:32.748Z,56.80
2018-01-14T15:03:33.948Z,56.40
2018-01-14T15:08:35.253Z,56.40
2018-01-14T15:13:36.506Z,57.00
2018-01-14T15:18:37.628Z,57.30
2018-01-14T15:23:39.618Z,57.80
2018-01-14T15:28:40.639Z,57.70
2018-01-14T15:33:42.606Z,57.40
2018-01-14T15:38:44.382Z,57.90
2018-01-14T15:43:45.371Z,57.80
2018-01-14T15:48:46.574Z,56.90
2018-01-14T15:53:47.570Z,58.00
2018-01-14T15:58:48.746Z,58.60
2018-01-14T16:03:49.754Z,59.00
2018-01-14T16:08:51.742Z,60.20
2018-01-14T16:13:52.746Z,60.20
2018-01-14T16:18:54.497Z,63.10
2018-01-14T16:23:55.509Z,63.10
2018-01-14T16:28:56.891Z,65.30
2018-01-14T16:33:57.902Z,67.00
2018-01-14T16:38:59.651Z,69.20
2018-01-14T16:44:00.671Z,69.10
2018-01-14T16:49:01.951Z,70.00
2018-01-14T16:54:02.962Z,69.70
2018-01-14T16:59:04.823Z,70.10
2018-01-14T17:04:06.023Z,70.00
2018-01-14T17:09:07.040Z,70.60
2018-01-14T17:14:08.865Z,72.20
2018-01-14T17:19:09.874Z,72.30
2018-01-14T17:24:11.170Z,72.10
2018-01-14T17:29:12.205Z,72.50
2018-01-14T17:34:13.947Z,73.30
2018-01-14T17:39:14.960Z,73.40
2018-01-14T17:44:16.066Z,73.40
2018-01-14T17:49:17.190Z,74.30
2018-01-14T17:54:18.487Z,75.60
2018-01-14T17:59:19.597Z,75.70
2018-01-14T18:04:20.928Z,75.70
2018-01-14T18:09:21.966Z,76.00
2018-01-14T18:14:23.107Z,77.30
2018-01-14T18:19:24.401Z,77.90
2018-01-14T18:24:25.611Z,78.40
2018-01-14T18:29:26.859Z,79.00
2018-01-14T18:34:28.212Z,78.70
2018-01-14T18:39:30.119Z,80.70
2018-01-14T18:44:31.195Z,80.60
2018-01-14T18:49:32.370Z,80.90
2018-01-14T18:54:33.498Z,79.90
2018-01-14T18:59:34.792Z,79.80
2018-01-14T19:04:35.981Z,81.10
2018-01-14T19:09:37.416Z,81.20
2018-01-14T19:14:39.578Z,82.20
2018-01-14T19:19:41.190Z,82.20
2018-01-14T19:24:42.401Z,82.50
2018-01-14T19:29:43.621Z,82.80
2018-01-14T19:34:44.712Z,83.30
2018-01-14T19:39:46.813Z,86.30
2018-01-14T19:44:48.699Z,85.90
2018-01-14T19:49:49.807Z,85.80
2018-01-14T19:54:53.326Z,87.00
2018-01-14T19:59:55.535Z,86.90
2018-01-14T20:04:56.593Z,86.80
2018-01-14T20:09:57.940Z,87.10
2018-01-14T20:14:58.968Z,86.70
